sensor_id;sensor_type;location;lat;lon;timestamp;temperature;humidity
9768;DHT22;4923;52.520;13.494;2023-05-07T00:00:23;9.20;72.40
9768;DHT22;4923;52.520;13.494;2023-05-07T00:03:11;9.20;1.00
9768;DHT22;4923;52.520;13.494;2023-05-07T00:05:59;9.20;1.00
9768;DHT22;4923;52.520;13.494;2023-05-07T00:08:46;9.10;99.90
9768;DHT22;4923;52.520;13.494;2023-05-07T00:11:33;9.10;1.00
9768;DHT22;4923;52.520;13.494;2023-05-07T00:14:20;9.10;99.90
9768;DHT22;4923;52.520;13.494;2023-05-07T00:17:07;9.10;1.00
9768;DHT22;4923;52.520;13.494;2023-05-07T00:19:55;9.20;1.00
9768;DHT22;4923;52.520;13.494;2023-05-07T00:22:42;9.20;99.90
9768;DHT22;4923;52.520;13.494;2023-05-07T00:25:29;9.20;1.00
9768;DHT22;4923;52.520;13.494;2023-05-07T00:28:16;9.20;1.00
9768;DHT22;4923;52.520;13.494;2023-05-07T00:31:03;9.20;99.90
9768;DHT22;4923;52.520;13.494;2023-05-07T00:33:49;9.10;1.00
9768;DHT22;4923;52.520;13.494;2023-05-07T00:36:38;9.00;1.00
9768;DHT22;4923;52.520;13.494;2023-05-07T00:39:24;8.90;1.00
9768;DHT22;4923;52.520;13.494;2023-05-07T00:42:11;8.80;1.00
9768;DHT22;4923;52.520;13.494;2023-05-07T00:44:58;8.90;99.90
9768;DHT22;4923;52.520;13.494;2023-05-07T00:47:45;8.80;1.00
9768;DHT22;4923;52.520;13.494;2023-05-07T00:50:32;8.80;1.00
9768;DHT22;4923;52.520;13.494;2023-05-07T00:53:21;8.80;1.00
9768;DHT22;4923;52.520;13.494;2023-05-07T00:56:08;8.90;1.00
9768;DHT22;4923;52.520;13.494;2023-05-07T00:58:55;9.00;99.90
9768;DHT22;4923;52.520;13.494;2023-05-07T01:01:42;9.00;79.40
9768;DHT22;4923;52.520;13.494;2023-05-07T01:04:29;9.00;99.90
9768;DHT22;4923;52.520;13.494;2023-05-07T01:07:16;9.00;1.00
9768;DHT22;4923;52.520;13.494;2023-05-07T01:10:05;9.00;1.00
9768;DHT22;4923;52.520;13.494;2023-05-07T01:12:53;9.00;99.90
9768;DHT22;4923;52.520;13.494;2023-05-07T01:15:40;9.00;99.90
9768;DHT22;4923;52.520;13.494;2023-05-07T01:18:27;9.10;99.90
9768;DHT22;4923;52.520;13.494;2023-05-07T01:21:16;9.00;1.00
9768;DHT22;4923;52.520;13.494;2023-05-07T01:24:06;9.00;1.00
9768;DHT22;4923;52.520;13.494;2023-05-07T01:26:52;9.00;1.00
9768;DHT22;4923;52.520;13.494;2023-05-07T01:29:39;9.00;1.00
9768;DHT22;4923;52.520;13.494;2023-05-07T01:32:30;9.00;1.00
9768;DHT22;4923;52.520;13.494;2023-05-07T01:35:19;9.00;1.00
9768;DHT22;4923;52.520;13.494;2023-05-07T01:38:08;9.10;99.90
9768;DHT22;4923;52.520;13.494;2023-05-07T01:40:57;9.00;1.00
9768;DHT22;4923;52.520;13.494;2023-05-07T01:43:44;9.00;99.90
9768;DHT22;4923;52.520;13.494;2023-05-07T01:46:32;9.10;99.90
9768;DHT22;4923;52.520;13.494;2023-05-07T01:49:20;9.00;99.90
9768;DHT22;4923;52.520;13.494;2023-05-07T01:52:07;9.10;1.00
9768;DHT22;4923;52.520;13.494;2023-05-07T01:54:54;9.10;1.00
9768;DHT22;4923;52.520;13.494;2023-05-07T01:57:42;9.10;99.90
9768;DHT22;4923;52.520;13.494;2023-05-07T02:00:29;9.10;1.00
9768;DHT22;4923;52.520;13.494;2023-05-07T02:03:16;9.10;99.90
9768;DHT22;4923;52.520;13.494;2023-05-07T02:06:03;9.00;1.00
9768;DHT22;4923;52.520;13.494;2023-05-07T02:08:50;9.00;1.00
9768;DHT22;4923;52.520;13.494;2023-05-07T02:11:37;9.00;99.90
9768;DHT22;4923;52.520;13.494;2023-05-07T02:14:25;9.10;1.00
9768;DHT22;4923;52.520;13.494;2023-05-07T02:17:12;9.10;99.90
9768;DHT22;4923;52.520;13.494;2023-05-07T02:19:59;9.10;1.00
9768;DHT22;4923;52.520;13.494;2023-05-07T02:22:46;9.10;1.00
9768;DHT22;4923;52.520;13.494;2023-05-07T02:25:33;9.10;1.00
9768;DHT22;4923;52.520;13.494;2023-05-07T02:28:19;9.20;1.00
9768;DHT22;4923;52.520;13.494;2023-05-07T02:31:08;9.10;99.90
9768;DHT22;4923;52.520;13.494;2023-05-07T02:33:54;9.10;1.00
9768;DHT22;4923;52.520;13.494;2023-05-07T02:36:41;9.10;1.00
9768;DHT22;4923;52.520;13.494;2023-05-07T02:39:28;9.10;99.90
9768;DHT22;4923;52.520;13.494;2023-05-07T02:42:15;9.10;99.90
9768;DHT22;4923;52.520;13.494;2023-05-07T02:45:02;9.10;99.90
9768;DHT22;4923;52.520;13.494;2023-05-07T02:47:50;9.10;1.00
9768;DHT22;4923;52.520;13.494;2023-05-07T02:50:37;9.00;1.00
9768;DHT22;4923;52.520;13.494;2023-05-07T02:53:24;9.10;1.00
9768;DHT22;4923;52.520;13.494;2023-05-07T02:56:12;9.10;1.00
9768;DHT22;4923;52.520;13.494;2023-05-07T02:58:58;9.10;1.00
9768;DHT22;4923;52.520;13.494;2023-05-07T03:01:45;9.10;99.90
9768;DHT22;4923;52.520;13.494;2023-05-07T03:04:33;9.10;1.00
9768;DHT22;4923;52.520;13.494;2023-05-07T03:07:20;9.10;1.00
9768;DHT22;4923;52.520;13.494;2023-05-07T03:10:08;9.10;1.00
9768;DHT22;4923;52.520;13.494;2023-05-07T03:12:54;9.10;99.90
9768;DHT22;4923;52.520;13.494;2023-05-07T03:15:41;9.10;1.00
9768;DHT22;4923;52.520;13.494;2023-05-07T03:18:28;9.10;1.00
9768;DHT22;4923;52.520;13.494;2023-05-07T03:21:16;9.10;1.00
9768;DHT22;4923;52.520;13.494;2023-05-07T03:24:04;9.10;99.90
9768;DHT22;4923;52.520;13.494;2023-05-07T03:26:51;9.10;1.00
9768;DHT22;4923;52.520;13.494;2023-05-07T03:29:38;9.10;1.00
9768;DHT22;4923;52.520;13.494;2023-05-07T03:32:25;9.10;99.90
9768;DHT22;4923;52.520;13.494;2023-05-07T03:35:12;9.00;99.90
9768;DHT22;4923;52.520;13.494;2023-05-07T03:38:00;9.00;1.00
9768;DHT22;4923;52.520;13.494;2023-05-07T03:40:47;9.00;1.00
9768;DHT22;4923;52.520;13.494;2023-05-07T03:43:34;9.00;1.00
9768;DHT22;4923;52.520;13.494;2023-05-07T03:46:21;9.00;1.00
9768;DHT22;4923;52.520;13.494;2023-05-07T03:49:07;9.00;1.00
9768;DHT22;4923;52.520;13.494;2023-05-07T03:51:54;9.00;99.90
9768;DHT22;4923;52.520;13.494;2023-05-07T03:54:43;9.00;1.00
9768;DHT22;4923;52.520;13.494;2023-05-07T03:57:30;9.00;6.10
9768;DHT22;4923;52.520;13.494;2023-05-07T04:00:17;9.00;1.00
9768;DHT22;4923;52.520;13.494;2023-05-07T04:03:05;9.00;1.00
9768;DHT22;4923;52.520;13.494;2023-05-07T04:05:52;9.00;99.90
9768;DHT22;4923;52.520;13.494;2023-05-07T04:08:39;8.90;99.90
9768;DHT22;4923;52.520;13.494;2023-05-07T04:11:27;8.90;1.00
9768;DHT22;4923;52.520;13.494;2023-05-07T04:14:14;8.90;1.00
9768;DHT22;4923;52.520;13.494;2023-05-07T04:17:01;9.00;1.00
9768;DHT22;4923;52.520;13.494;2023-05-07T04:19:48;9.00;1.00
9768;DHT22;4923;52.520;13.494;2023-05-07T04:22:35;9.00;1.00
9768;DHT22;4923;52.520;13.494;2023-05-07T04:25:22;9.10;1.00
9768;DHT22;4923;52.520;13.494;2023-05-07T04:28:13;9.10;1.00
9768;DHT22;4923;52.520;13.494;2023-05-07T04:31:00;9.10;1.00
9768;DHT22;4923;52.520;13.494;2023-05-07T04:33:47;9.10;1.00
9768;DHT22;4923;52.520;13.494;2023-05-07T04:36:34;9.10;1.00
9768;DHT22;4923;52.520;13.494;2023-05-07T04:39:21;9.20;1.00
9768;DHT22;4923;52.520;13.494;2023-05-07T04:42:08;9.30;1.00
9768;DHT22;4923;52.520;13.494;2023-05-07T04:44:56;9.30;1.00
9768;DHT22;4923;52.520;13.494;2023-05-07T04:47:43;9.30;1.00
9768;DHT22;4923;52.520;13.494;2023-05-07T04:50:30;9.40;1.00
9768;DHT22;4923;52.520;13.494;2023-05-07T04:53:17;9.40;1.00
9768;DHT22;4923;52.520;13.494;2023-05-07T04:56:04;9.40;1.00
9768;DHT22;4923;52.520;13.494;2023-05-07T04:58:51;9.40;1.00
9768;DHT22;4923;52.520;13.494;2023-05-07T05:01:39;9.50;99.90
9768;DHT22;4923;52.520;13.494;2023-05-07T05:04:26;9.60;99.90
9768;DHT22;4923;52.520;13.494;2023-05-07T05:07:13;9.80;99.90
9768;DHT22;4923;52.520;13.494;2023-05-07T05:10:00;10.10;99.90
9768;DHT22;4923;52.520;13.494;2023-05-07T05:12:46;10.30;99.90
9768;DHT22;4923;52.520;13.494;2023-05-07T05:15:33;10.40;99.90
9768;DHT22;4923;52.520;13.494;2023-05-07T05:18:22;10.50;99.90
9768;DHT22;4923;52.520;13.494;2023-05-07T05:21:08;10.50;99.90
9768;DHT22;4923;52.520;13.494;2023-05-07T05:23:55;10.20;99.90
9768;DHT22;4923;52.520;13.494;2023-05-07T05:26:42;10.30;99.90
9768;DHT22;4923;52.520;13.494;2023-05-07T05:29:29;10.20;99.90
9768;DHT22;4923;52.520;13.494;2023-05-07T05:32:17;10.40;99.90
9768;DHT22;4923;52.520;13.494;2023-05-07T05:35:05;10.50;99.90
9768;DHT22;4923;52.520;13.494;2023-05-07T05:37:52;10.70;99.90
9768;DHT22;4923;52.520;13.494;2023-05-07T05:40:39;10.80;99.90
9768;DHT22;4923;52.520;13.494;2023-05-07T05:43:26;10.80;99.90
9768;DHT22;4923;52.520;13.494;2023-05-07T05:46:13;11.00;99.90
9768;DHT22;4923;52.520;13.494;2023-05-07T05:49:00;11.00;99.90
9768;DHT22;4923;52.520;13.494;2023-05-07T05:51:48;11.30;95.30
9768;DHT22;4923;52.520;13.494;2023-05-07T05:54:35;11.40;54.40
9768;DHT22;4923;52.520;13.494;2023-05-07T05:57:22;11.50;28.10
9768;DHT22;4923;52.520;13.494;2023-05-07T06:00:09;11.70;9.80
9768;DHT22;4923;52.520;13.494;2023-05-07T06:02:57;11.80;1.00
9768;DHT22;4923;52.520;13.494;2023-05-07T06:05:44;11.70;1.00
9768;DHT22;4923;52.520;13.494;2023-05-07T06:08:32;11.70;1.00
9768;DHT22;4923;52.520;13.494;2023-05-07T06:11:19;11.60;1.00
9768;DHT22;4923;52.520;13.494;2023-05-07T06:14:05;11.80;1.00
9768;DHT22;4923;52.520;13.494;2023-05-07T06:16:52;12.20;1.00
9768;DHT22;4923;52.520;13.494;2023-05-07T06:19:39;12.10;1.00
9768;DHT22;4923;52.520;13.494;2023-05-07T06:22:26;11.70;1.00
9768;DHT22;4923;52.520;13.494;2023-05-07T06:25:14;11.80;1.00
9768;DHT22;4923;52.520;13.494;2023-05-07T06:28:01;12.10;1.00
9768;DHT22;4923;52.520;13.494;2023-05-07T06:30:48;12.00;1.00
9768;DHT22;4923;52.520;13.494;2023-05-07T06:33:35;12.10;1.00
9768;DHT22;4923;52.520;13.494;2023-05-07T06:36:22;12.30;1.00
9768;DHT22;4923;52.520;13.494;2023-05-07T06:39:09;12.40;1.00
9768;DHT22;4923;52.520;13.494;2023-05-07T06:41:57;12.60;1.00
9768;DHT22;4923;52.520;13.494;2023-05-07T06:44:44;12.60;1.00
9768;DHT22;4923;52.520;13.494;2023-05-07T06:47:31;12.80;1.00
9768;DHT22;4923;52.520;13.494;2023-05-07T06:50:18;12.70;1.00
9768;DHT22;4923;52.520;13.494;2023-05-07T06:53:04;12.50;1.00
9768;DHT22;4923;52.520;13.494;2023-05-07T06:55:51;12.60;1.00
9768;DHT22;4923;52.520;13.494;2023-05-07T06:58:40;12.50;1.00
9768;DHT22;4923;52.520;13.494;2023-05-07T07:01:27;12.50;1.00
9768;DHT22;4923;52.520;13.494;2023-05-07T07:04:14;12.10;1.00
9768;DHT22;4923;52.520;13.494;2023-05-07T07:07:00;12.30;1.00
9768;DHT22;4923;52.520;13.494;2023-05-07T07:09:48;12.20;1.00
9768;DHT22;4923;52.520;13.494;2023-05-07T07:12:36;12.40;1.00
9768;DHT22;4923;52.520;13.494;2023-05-07T07:15:25;12.50;1.00
9768;DHT22;4923;52.520;13.494;2023-05-07T07:18:12;12.60;1.00
9768;DHT22;4923;52.520;13.494;2023-05-07T07:20:59;12.50;1.00
9768;DHT22;4923;52.520;13.494;2023-05-07T07:23:45;12.50;1.00
9768;DHT22;4923;52.520;13.494;2023-05-07T07:26:32;12.20;1.00
9768;DHT22;4923;52.520;13.494;2023-05-07T07:29:19;12.10;1.00
9768;DHT22;4923;52.520;13.494;2023-05-07T07:32:08;12.20;1.00
9768;DHT22;4923;52.520;13.494;2023-05-07T07:34:55;12.30;1.00
9768;DHT22;4923;52.520;13.494;2023-05-07T07:37:41;12.50;1.00
9768;DHT22;4923;52.520;13.494;2023-05-07T07:40:28;12.40;1.00
9768;DHT22;4923;52.520;13.494;2023-05-07T07:43:15;12.40;1.00
9768;DHT22;4923;52.520;13.494;2023-05-07T07:46:02;12.50;1.00
9768;DHT22;4923;52.520;13.494;2023-05-07T07:48:51;12.60;1.00
9768;DHT22;4923;52.520;13.494;2023-05-07T07:51:38;12.90;1.00
9768;DHT22;4923;52.520;13.494;2023-05-07T07:54:25;13.10;1.00
9768;DHT22;4923;52.520;13.494;2023-05-07T07:57:12;13.30;1.00
9768;DHT22;4923;52.520;13.494;2023-05-07T07:59:59;13.30;1.00
9768;DHT22;4923;52.520;13.494;2023-05-07T08:02:46;13.30;1.00
9768;DHT22;4923;52.520;13.494;2023-05-07T08:05:34;12.90;1.00
9768;DHT22;4923;52.520;13.494;2023-05-07T08:08:22;13.20;1.00
9768;DHT22;4923;52.520;13.494;2023-05-07T08:11:09;13.40;1.00
9768;DHT22;4923;52.520;13.494;2023-05-07T08:13:56;13.50;1.00
9768;DHT22;4923;52.520;13.494;2023-05-07T08:16:43;13.60;1.00
9768;DHT22;4923;52.520;13.494;2023-05-07T08:19:30;13.50;1.00
9768;DHT22;4923;52.520;13.494;2023-05-07T08:22:18;13.50;1.00
9768;DHT22;4923;52.520;13.494;2023-05-07T08:25:05;13.80;1.00
9768;DHT22;4923;52.520;13.494;2023-05-07T08:27:52;13.60;1.00
9768;DHT22;4923;52.520;13.494;2023-05-07T08:30:41;13.70;1.00
9768;DHT22;4923;52.520;13.494;2023-05-07T08:33:28;13.80;1.00
9768;DHT22;4923;52.520;13.494;2023-05-07T08:36:15;13.90;1.00
9768;DHT22;4923;52.520;13.494;2023-05-07T08:39:03;14.20;1.00
9768;DHT22;4923;52.520;13.494;2023-05-07T08:41:50;14.20;1.00
9768;DHT22;4923;52.520;13.494;2023-05-07T08:44:39;14.30;1.00
9768;DHT22;4923;52.520;13.494;2023-05-07T08:47:34;14.50;1.00
9768;DHT22;4923;52.520;13.494;2023-05-07T08:50:21;14.50;1.00
9768;DHT22;4923;52.520;13.494;2023-05-07T08:53:08;14.90;1.00
9768;DHT22;4923;52.520;13.494;2023-05-07T08:55:56;14.90;1.00
9768;DHT22;4923;52.520;13.494;2023-05-07T08:58:44;15.00;1.00
9768;DHT22;4923;52.520;13.494;2023-05-07T09:01:31;15.30;1.00
9768;DHT22;4923;52.520;13.494;2023-05-07T09:04:18;15.60;1.00
9768;DHT22;4923;52.520;13.494;2023-05-07T09:07:05;15.40;1.00
9768;DHT22;4923;52.520;13.494;2023-05-07T09:09:53;15.30;1.00
9768;DHT22;4923;52.520;13.494;2023-05-07T09:12:41;15.50;1.00
9768;DHT22;4923;52.520;13.494;2023-05-07T09:15:28;15.50;1.00
9768;DHT22;4923;52.520;13.494;2023-05-07T09:18:15;15.70;1.00
9768;DHT22;4923;52.520;13.494;2023-05-07T09:21:02;15.90;1.00
9768;DHT22;4923;52.520;13.494;2023-05-07T09:23:50;16.10;1.00
9768;DHT22;4923;52.520;13.494;2023-05-07T09:26:37;16.20;1.00
9768;DHT22;4923;52.520;13.494;2023-05-07T09:29:26;15.80;1.00
9768;DHT22;4923;52.520;13.494;2023-05-07T09:32:14;15.60;1.00
9768;DHT22;4923;52.520;13.494;2023-05-07T09:35:01;15.20;1.00
9768;DHT22;4923;52.520;13.494;2023-05-07T09:37:49;14.80;1.00
9768;DHT22;4923;52.520;13.494;2023-05-07T09:40:36;15.10;1.00
9768;DHT22;4923;52.520;13.494;2023-05-07T09:43:23;15.30;1.00
9768;DHT22;4923;52.520;13.494;2023-05-07T09:46:14;15.50;1.00
9768;DHT22;4923;52.520;13.494;2023-05-07T09:49:02;15.80;1.00
9768;DHT22;4923;52.520;13.494;2023-05-07T09:51:50;16.30;1.00
9768;DHT22;4923;52.520;13.494;2023-05-07T09:54:39;16.10;1.00
9768;DHT22;4923;52.520;13.494;2023-05-07T09:57:29;16.00;1.00
9768;DHT22;4923;52.520;13.494;2023-05-07T10:00:17;15.80;1.00
9768;DHT22;4923;52.520;13.494;2023-05-07T10:03:07;15.50;1.00
9768;DHT22;4923;52.520;13.494;2023-05-07T10:05:55;15.60;1.00
9768;DHT22;4923;52.520;13.494;2023-05-07T10:08:43;15.60;1.00
9768;DHT22;4923;52.520;13.494;2023-05-07T10:11:32;15.80;1.00
9768;DHT22;4923;52.520;13.494;2023-05-07T10:14:20;16.00;1.00
9768;DHT22;4923;52.520;13.494;2023-05-07T10:17:07;16.00;1.00
9768;DHT22;4923;52.520;13.494;2023-05-07T10:19:58;16.30;1.00
9768;DHT22;4923;52.520;13.494;2023-05-07T10:22:47;16.20;1.00
9768;DHT22;4923;52.520;13.494;2023-05-07T10:25:35;16.40;1.00
9768;DHT22;4923;52.520;13.494;2023-05-07T10:28:23;16.30;1.00
9768;DHT22;4923;52.520;13.494;2023-05-07T10:31:24;16.30;1.00
9768;DHT22;4923;52.520;13.494;2023-05-07T10:34:21;16.60;1.00
9768;DHT22;4923;52.520;13.494;2023-05-07T10:37:10;17.00;1.00
9768;DHT22;4923;52.520;13.494;2023-05-07T10:39:58;17.00;1.00
9768;DHT22;4923;52.520;13.494;2023-05-07T10:42:55;17.30;1.00
9768;DHT22;4923;52.520;13.494;2023-05-07T10:45:42;17.40;1.00
9768;DHT22;4923;52.520;13.494;2023-05-07T10:48:29;17.00;1.00
9768;DHT22;4923;52.520;13.494;2023-05-07T10:51:20;17.20;1.00
9768;DHT22;4923;52.520;13.494;2023-05-07T10:54:24;16.90;1.00
9768;DHT22;4923;52.520;13.494;2023-05-07T10:57:33;17.10;1.00
9768;DHT22;4923;52.520;13.494;2023-05-07T11:00:43;17.20;1.00
9768;DHT22;4923;52.520;13.494;2023-05-07T11:03:32;17.30;1.00
9768;DHT22;4923;52.520;13.494;2023-05-07T11:06:19;17.20;1.00
9768;DHT22;4923;52.520;13.494;2023-05-07T11:09:06;17.40;1.00
9768;DHT22;4923;52.520;13.494;2023-05-07T11:11:54;17.30;1.00
9768;DHT22;4923;52.520;13.494;2023-05-07T11:14:45;16.90;1.00
9768;DHT22;4923;52.520;13.494;2023-05-07T11:17:32;16.80;1.00
9768;DHT22;4923;52.520;13.494;2023-05-07T11:20:20;17.30;1.00
9768;DHT22;4923;52.520;13.494;2023-05-07T11:23:07;17.20;1.00
9768;DHT22;4923;52.520;13.494;2023-05-07T11:25:58;17.20;1.00
9768;DHT22;4923;52.520;13.494;2023-05-07T11:28:47;17.30;1.00
9768;DHT22;4923;52.520;13.494;2023-05-07T11:31:35;17.20;1.00
9768;DHT22;4923;52.520;13.494;2023-05-07T11:34:23;16.70;1.00
9768;DHT22;4923;52.520;13.494;2023-05-07T11:37:11;16.80;1.00
9768;DHT22;4923;52.520;13.494;2023-05-07T11:40:05;16.90;1.00
9768;DHT22;4923;52.520;13.494;2023-05-07T11:42:53;17.00;1.00
9768;DHT22;4923;52.520;13.494;2023-05-07T11:45:41;17.30;1.00
9768;DHT22;4923;52.520;13.494;2023-05-07T11:48:28;17.30;1.00
9768;DHT22;4923;52.520;13.494;2023-05-07T11:51:19;17.50;1.00
9768;DHT22;4923;52.520;13.494;2023-05-07T11:54:06;17.60;1.00
9768;DHT22;4923;52.520;13.494;2023-05-07T11:56:56;17.30;1.00
9768;DHT22;4923;52.520;13.494;2023-05-07T11:59:44;17.10;1.00
9768;DHT22;4923;52.520;13.494;2023-05-07T12:02:33;17.30;1.00
9768;DHT22;4923;52.520;13.494;2023-05-07T12:05:20;17.40;1.00
9768;DHT22;4923;52.520;13.494;2023-05-07T12:08:07;17.10;1.00
9768;DHT22;4923;52.520;13.494;2023-05-07T12:10:55;17.10;1.00
9768;DHT22;4923;52.520;13.494;2023-05-07T12:13:42;17.20;1.00
9768;DHT22;4923;52.520;13.494;2023-05-07T12:16:29;16.90;1.00
9768;DHT22;4923;52.520;13.494;2023-05-07T12:19:18;16.70;1.00
9768;DHT22;4923;52.520;13.494;2023-05-07T12:22:06;16.70;1.00
9768;DHT22;4923;52.520;13.494;2023-05-07T12:24:57;17.10;1.00
9768;DHT22;4923;52.520;13.494;2023-05-07T12:27:44;17.50;1.00
9768;DHT22;4923;52.520;13.494;2023-05-07T12:30:38;17.50;1.00
9768;DHT22;4923;52.520;13.494;2023-05-07T12:33:26;17.80;1.00
9768;DHT22;4923;52.520;13.494;2023-05-07T12:36:15;17.50;1.00
9768;DHT22;4923;52.520;13.494;2023-05-07T12:39:04;17.10;1.00
9768;DHT22;4923;52.520;13.494;2023-05-07T12:41:58;17.20;1.00
9768;DHT22;4923;52.520;13.494;2023-05-07T12:44:46;17.10;1.00
9768;DHT22;4923;52.520;13.494;2023-05-07T12:47:33;17.10;1.00
9768;DHT22;4923;52.520;13.494;2023-05-07T12:50:20;16.90;1.00
9768;DHT22;4923;52.520;13.494;2023-05-07T12:53:12;16.80;1.00
9768;DHT22;4923;52.520;13.494;2023-05-07T12:56:00;17.10;1.00
9768;DHT22;4923;52.520;13.494;2023-05-07T12:58:48;17.20;1.00
9768;DHT22;4923;52.520;13.494;2023-05-07T13:01:35;17.50;1.00
9768;DHT22;4923;52.520;13.494;2023-05-07T13:04:24;17.60;1.00
9768;DHT22;4923;52.520;13.494;2023-05-07T13:07:11;17.70;1.00
9768;DHT22;4923;52.520;13.494;2023-05-07T13:09:59;17.40;1.00
9768;DHT22;4923;52.520;13.494;2023-05-07T13:12:46;17.40;1.00
9768;DHT22;4923;52.520;13.494;2023-05-07T13:15:33;17.30;1.00
9768;DHT22;4923;52.520;13.494;2023-05-07T13:18:20;16.90;1.00
9768;DHT22;4923;52.520;13.494;2023-05-07T13:21:07;17.10;1.00
9768;DHT22;4923;52.520;13.494;2023-05-07T13:23:54;17.30;1.00
9768;DHT22;4923;52.520;13.494;2023-05-07T13:26:42;17.40;1.00
9768;DHT22;4923;52.520;13.494;2023-05-07T13:29:29;17.10;1.00
9768;DHT22;4923;52.520;13.494;2023-05-07T13:32:16;17.10;1.00
9768;DHT22;4923;52.520;13.494;2023-05-07T13:35:03;17.20;1.00
9768;DHT22;4923;52.520;13.494;2023-05-07T13:37:50;17.40;1.00
9768;DHT22;4923;52.520;13.494;2023-05-07T13:40:37;17.20;1.00
9768;DHT22;4923;52.520;13.494;2023-05-07T13:43:25;17.20;1.00
9768;DHT22;4923;52.520;13.494;2023-05-07T13:46:12;17.40;1.00
9768;DHT22;4923;52.520;13.494;2023-05-07T13:48:59;17.30;1.00
9768;DHT22;4923;52.520;13.494;2023-05-07T13:51:46;17.30;1.00
9768;DHT22;4923;52.520;13.494;2023-05-07T13:54:33;17.20;1.00
9768;DHT22;4923;52.520;13.494;2023-05-07T13:57:20;17.00;1.00
9768;DHT22;4923;52.520;13.494;2023-05-07T14:00:09;16.90;1.00
9768;DHT22;4923;52.520;13.494;2023-05-07T14:02:56;17.00;1.00
9768;DHT22;4923;52.520;13.494;2023-05-07T14:05:44;17.30;1.00
9768;DHT22;4923;52.520;13.494;2023-05-07T14:08:31;17.50;1.00
9768;DHT22;4923;52.520;13.494;2023-05-07T14:11:17;17.60;1.00
9768;DHT22;4923;52.520;13.494;2023-05-07T14:14:04;17.70;1.00
9768;DHT22;4923;52.520;13.494;2023-05-07T14:16:53;17.50;1.00
9768;DHT22;4923;52.520;13.494;2023-05-07T14:19:39;17.80;1.00
9768;DHT22;4923;52.520;13.494;2023-05-07T14:22:26;18.10;1.00
9768;DHT22;4923;52.520;13.494;2023-05-07T14:25:13;18.30;1.00
9768;DHT22;4923;52.520;13.494;2023-05-07T14:28:00;18.40;1.00
9768;DHT22;4923;52.520;13.494;2023-05-07T14:30:47;18.60;1.00
9768;DHT22;4923;52.520;13.494;2023-05-07T14:33:35;18.90;1.00
9768;DHT22;4923;52.520;13.494;2023-05-07T14:36:22;19.30;1.00
9768;DHT22;4923;52.520;13.494;2023-05-07T14:39:11;19.30;1.00
9768;DHT22;4923;52.520;13.494;2023-05-07T14:41:58;19.60;1.00
9768;DHT22;4923;52.520;13.494;2023-05-07T14:44:46;19.90;1.00
9768;DHT22;4923;52.520;13.494;2023-05-07T14:47:34;19.70;1.00
9768;DHT22;4923;52.520;13.494;2023-05-07T14:50:22;19.20;1.00
9768;DHT22;4923;52.520;13.494;2023-05-07T14:53:09;18.90;1.00
9768;DHT22;4923;52.520;13.494;2023-05-07T14:55:56;18.60;1.00
9768;DHT22;4923;52.520;13.494;2023-05-07T14:58:42;18.40;1.00
9768;DHT22;4923;52.520;13.494;2023-05-07T15:01:29;18.20;1.00
9768;DHT22;4923;52.520;13.494;2023-05-07T15:04:17;18.10;1.00
9768;DHT22;4923;52.520;13.494;2023-05-07T15:07:05;18.00;1.00
9768;DHT22;4923;52.520;13.494;2023-05-07T15:09:52;17.90;1.00
9768;DHT22;4923;52.520;13.494;2023-05-07T15:12:39;17.80;1.00
9768;DHT22;4923;52.520;13.494;2023-05-07T15:15:27;17.80;1.00
9768;DHT22;4923;52.520;13.494;2023-05-07T15:18:14;18.00;1.00
9768;DHT22;4923;52.520;13.494;2023-05-07T15:21:01;18.30;1.00
9768;DHT22;4923;52.520;13.494;2023-05-07T15:23:49;18.60;1.00
9768;DHT22;4923;52.520;13.494;2023-05-07T15:26:36;18.50;1.00
9768;DHT22;4923;52.520;13.494;2023-05-07T15:29:23;18.30;1.00
9768;DHT22;4923;52.520;13.494;2023-05-07T15:32:10;18.50;1.00
9768;DHT22;4923;52.520;13.494;2023-05-07T15:34:57;18.70;1.00
9768;DHT22;4923;52.520;13.494;2023-05-07T15:37:44;18.30;1.00
9768;DHT22;4923;52.520;13.494;2023-05-07T15:40:32;17.90;1.00
9768;DHT22;4923;52.520;13.494;2023-05-07T15:43:20;17.40;1.00
9768;DHT22;4923;52.520;13.494;2023-05-07T15:46:07;17.30;1.00
9768;DHT22;4923;52.520;13.494;2023-05-07T15:48:54;17.30;1.00
9768;DHT22;4923;52.520;13.494;2023-05-07T15:51:41;17.60;1.00
9768;DHT22;4923;52.520;13.494;2023-05-07T15:54:28;17.80;1.00
9768;DHT22;4923;52.520;13.494;2023-05-07T15:57:17;18.00;1.00
9768;DHT22;4923;52.520;13.494;2023-05-07T16:00:05;18.00;1.00
9768;DHT22;4923;52.520;13.494;2023-05-07T16:02:54;18.10;1.00
9768;DHT22;4923;52.520;13.494;2023-05-07T16:05:41;18.10;1.00
9768;DHT22;4923;52.520;13.494;2023-05-07T16:08:28;18.10;1.00
9768;DHT22;4923;52.520;13.494;2023-05-07T16:11:15;17.90;1.00
9768;DHT22;4923;52.520;13.494;2023-05-07T16:14:03;17.70;1.00
9768;DHT22;4923;52.520;13.494;2023-05-07T16:16:50;17.50;1.00
9768;DHT22;4923;52.520;13.494;2023-05-07T16:19:37;17.20;1.00
9768;DHT22;4923;52.520;13.494;2023-05-07T16:22:23;17.20;1.00
9768;DHT22;4923;52.520;13.494;2023-05-07T16:25:10;17.30;1.00
9768;DHT22;4923;52.520;13.494;2023-05-07T16:27:59;17.20;1.00
9768;DHT22;4923;52.520;13.494;2023-05-07T16:30:47;16.90;1.00
9768;DHT22;4923;52.520;13.494;2023-05-07T16:33:35;16.70;1.00
9768;DHT22;4923;52.520;13.494;2023-05-07T16:36:22;16.60;1.00
9768;DHT22;4923;52.520;13.494;2023-05-07T16:39:08;16.50;1.00
9768;DHT22;4923;52.520;13.494;2023-05-07T16:41:55;16.40;1.00
9768;DHT22;4923;52.520;13.494;2023-05-07T16:44:42;16.10;1.00
9768;DHT22;4923;52.520;13.494;2023-05-07T16:47:34;16.10;1.00
9768;DHT22;4923;52.520;13.494;2023-05-07T16:50:21;15.90;1.00
9768;DHT22;4923;52.520;13.494;2023-05-07T16:53:08;16.70;1.00
9768;DHT22;4923;52.520;13.494;2023-05-07T16:55:55;18.10;1.00
9768;DHT22;4923;52.520;13.494;2023-05-07T16:58:42;19.00;1.00
9768;DHT22;4923;52.520;13.494;2023-05-07T17:01:29;19.80;1.00
9768;DHT22;4923;52.520;13.494;2023-05-07T17:04:18;20.20;1.00
9768;DHT22;4923;52.520;13.494;2023-05-07T17:07:05;19.30;1.00
9768;DHT22;4923;52.520;13.494;2023-05-07T17:09:52;18.40;1.00
9768;DHT22;4923;52.520;13.494;2023-05-07T17:12:39;17.80;1.00
9768;DHT22;4923;52.520;13.494;2023-05-07T17:15:26;17.10;1.00
9768;DHT22;4923;52.520;13.494;2023-05-07T17:18:13;16.60;1.00
9768;DHT22;4923;52.520;13.494;2023-05-07T17:21:01;16.30;1.00
9768;DHT22;4923;52.520;13.494;2023-05-07T17:23:48;16.10;1.00
9768;DHT22;4923;52.520;13.494;2023-05-07T17:26:35;15.90;1.00
9768;DHT22;4923;52.520;13.494;2023-05-07T17:29:23;15.70;1.00
9768;DHT22;4923;52.520;13.494;2023-05-07T17:32:10;15.60;1.00
9768;DHT22;4923;52.520;13.494;2023-05-07T17:34:57;15.90;1.00
9768;DHT22;4923;52.520;13.494;2023-05-07T17:37:46;15.90;1.00
9768;DHT22;4923;52.520;13.494;2023-05-07T17:40:37;15.70;1.00
9768;DHT22;4923;52.520;13.494;2023-05-07T17:43:24;15.50;1.00
9768;DHT22;4923;52.520;13.494;2023-05-07T17:46:10;15.30;1.00
9768;DHT22;4923;52.520;13.494;2023-05-07T17:48:58;15.30;1.00
9768;DHT22;4923;52.520;13.494;2023-05-07T17:51:45;15.60;1.00
9768;DHT22;4923;52.520;13.494;2023-05-07T17:54:34;15.20;1.00
9768;DHT22;4923;52.520;13.494;2023-05-07T17:57:21;14.90;1.00
9768;DHT22;4923;52.520;13.494;2023-05-07T18:00:08;14.80;1.00
9768;DHT22;4923;52.520;13.494;2023-05-07T18:02:55;14.60;1.00
9768;DHT22;4923;52.520;13.494;2023-05-07T18:05:44;14.50;1.00
9768;DHT22;4923;52.520;13.494;2023-05-07T18:08:33;14.30;1.00
9768;DHT22;4923;52.520;13.494;2023-05-07T18:11:22;14.20;1.00
9768;DHT22;4923;52.520;13.494;2023-05-07T18:14:09;14.10;1.00
9768;DHT22;4923;52.520;13.494;2023-05-07T18:16:56;14.10;1.00